createdAt,value
2022-11-24T00:04:16.038Z,0.30
2022-11-24T00:10:19.616Z,0.28
2022-11-24T00:13:21.025Z,0.32
2022-11-24T00:16:25.067Z,0.30
2022-11-24T00:19:26.546Z,0.30
2022-11-24T00:22:27.975Z,0.20
2022-11-24T00:31:35.638Z,0.20
2022-11-24T00:34:37.459Z,0.40
2022-11-24T00:37:38.979Z,0.60
2022-11-24T00:43:43.571Z,0.93
2022-11-24T00:46:45.290Z,0.70
2022-11-24T00:49:46.993Z,0.70
2022-11-24T00:52:48.432Z,0.80
2022-11-24T00:55:51.277Z,0.80
2022-11-24T00:58:52.677Z,0.80
2022-11-24T01:01:54.420Z,1.15
2022-11-24T01:04:55.845Z,1.13
2022-11-24T01:07:57.253Z,0.93
2022-11-24T01:11:08.183Z,1.10
2022-11-24T01:14:09.596Z,1.38
2022-11-24T01:17:11.195Z,1.20
2022-11-24T01:20:12.962Z,1.08
2022-11-24T01:23:14.434Z,1.55
2022-11-24T01:29:19.337Z,1.27
2022-11-24T01:35:22.096Z,1.02
2022-11-24T01:38:23.565Z,0.95
2022-11-24T01:44:29.115Z,1.10
2022-11-24T01:47:36.003Z,1.27
2022-11-24T01:50:37.906Z,0.98
2022-11-24T01:53:43.545Z,0.90
2022-11-24T01:56:50.957Z,0.95
2022-11-24T01:59:55.515Z,0.85
2022-11-24T02:02:59.384Z,1.25
2022-11-24T02:06:03.994Z,0.80
2022-11-24T02:09:11.907Z,0.75
2022-11-24T02:12:14.048Z,0.70
2022-11-24T02:15:16.617Z,0.82
2022-11-24T02:18:18.209Z,0.55
2022-11-24T02:21:19.848Z,0.82
2022-11-24T02:24:26.655Z,0.50
2022-11-24T02:27:28.653Z,0.50
2022-11-24T02:30:30.143Z,0.70
2022-11-24T02:36:34.162Z,0.77
2022-11-24T02:39:35.645Z,0.40
2022-11-24T02:45:42.132Z,0.70
2022-11-24T02:51:45.266Z,0.50
2022-11-24T02:54:46.674Z,0.40
2022-11-24T02:57:49.043Z,0.38
2022-11-24T03:00:53.414Z,0.30
2022-11-24T03:03:54.826Z,0.43
2022-11-24T03:06:56.862Z,0.30
2022-11-24T03:09:58.233Z,0.38
2022-11-24T03:13:00.258Z,0.40
2022-11-24T03:16:01.717Z,0.40
2022-11-24T03:22:05.409Z,0.28
2022-11-24T03:28:08.738Z,0.30
2022-11-24T03:31:10.734Z,0.40
2022-11-24T03:34:12.163Z,0.40
2022-11-24T03:37:13.675Z,0.28
2022-11-24T03:43:17.123Z,0.40
2022-11-24T03:46:18.679Z,0.20
2022-11-24T03:52:21.757Z,0.30
2022-11-24T03:58:25.154Z,0.10
2022-11-24T04:01:26.606Z,0.20
2022-11-24T04:07:29.421Z,0.30
2022-11-24T04:10:32.669Z,0.55
2022-11-24T04:13:34.414Z,0.30
2022-11-24T04:16:36.591Z,0.30
2022-11-24T04:19:38.253Z,0.30
2022-11-24T04:22:39.922Z,0.20
2022-11-24T04:25:42.617Z,0.30
2022-11-24T04:28:45.950Z,0.20
2022-11-24T04:31:47.338Z,0.30
2022-11-24T04:37:50.125Z,0.20
2022-11-24T04:43:53.417Z,0.20
2022-11-24T04:46:54.940Z,0.20
2022-11-24T04:52:58.136Z,0.20
2022-11-24T04:56:04.048Z,0.20
2022-11-24T04:59:08.421Z,0.40
2022-11-24T05:02:11.110Z,0.32
2022-11-24T05:05:12.618Z,0.40
2022-11-24T05:08:13.992Z,0.30
2022-11-24T05:11:16.166Z,0.43
2022-11-24T05:14:18.213Z,0.35
2022-11-24T05:17:19.934Z,0.20
2022-11-24T05:20:21.809Z,0.30
2022-11-24T05:23:23.336Z,0.50
2022-11-24T05:29:27.585Z,0.20
2022-11-24T05:32:28.986Z,0.60
2022-11-24T05:35:30.384Z,0.50
2022-11-24T05:38:32.648Z,0.50
2022-11-24T05:41:34.056Z,0.40
2022-11-24T05:44:36.571Z,0.40
2022-11-24T05:47:39.118Z,0.60
2022-11-24T05:50:40.781Z,0.55
2022-11-24T05:53:42.269Z,0.70
2022-11-24T05:59:45.638Z,0.30
2022-11-24T06:02:47.971Z,0.60
2022-11-24T06:05:49.574Z,0.47
2022-11-24T06:11:52.431Z,0.43
2022-11-24T06:21:10.311Z,0.40
2022-11-24T06:24:13.903Z,0.40
2022-11-24T06:27:15.938Z,0.40
2022-11-24T06:30:18.035Z,0.40
2022-11-24T06:33:20.051Z,0.65
2022-11-24T06:36:21.559Z,0.38
2022-11-24T06:44:21.822Z,0.50
2022-11-24T06:47:23.881Z,0.45
2022-11-24T06:50:29.294Z,0.30
2022-11-24T06:53:37.465Z,0.38
2022-11-24T06:56:39.064Z,0.40
2022-11-24T06:59:40.522Z,0.40
2022-11-24T07:05:47.689Z,0.65
2022-11-24T07:08:49.834Z,0.40
2022-11-24T07:11:51.280Z,0.30
2022-11-24T07:14:52.735Z,0.30
2022-11-24T07:23:58.303Z,0.50
2022-11-24T07:26:59.703Z,0.60
2022-11-24T07:30:01.309Z,0.35
2022-11-24T07:33:03.489Z,0.40
2022-11-24T07:36:07.535Z,0.30
2022-11-24T07:39:09.003Z,0.50
2022-11-24T07:42:10.683Z,0.40
2022-11-24T07:45:12.115Z,0.60
2022-11-24T07:48:16.520Z,0.40
2022-11-24T07:51:18.017Z,0.50
2022-11-24T07:57:20.971Z,0.40
2022-11-24T08:03:24.848Z,0.40
2022-11-24T08:06:33.862Z,0.40
2022-11-24T08:09:42.191Z,0.38
2022-11-24T08:12:48.708Z,0.50
2022-11-24T08:18:55.260Z,0.40
2022-11-24T08:21:57.095Z,0.50
2022-11-24T08:24:58.812Z,0.50
2022-11-24T08:28:02.032Z,0.50
2022-11-24T08:31:05.899Z,0.40
2022-11-24T08:34:09.603Z,0.40
2022-11-24T08:37:11.666Z,0.40
2022-11-24T08:40:14.406Z,0.57
2022-11-24T08:43:18.394Z,0.50
2022-11-24T08:46:22.566Z,0.40
2022-11-24T08:49:25.237Z,0.40
2022-11-24T08:52:26.980Z,1.00
2022-11-24T08:55:29.007Z,0.40
2022-11-24T08:58:31.276Z,0.38
2022-11-24T09:01:33.019Z,0.47
2022-11-24T09:04:39.349Z,0.30
2022-11-24T09:07:40.975Z,0.52
2022-11-24T09:10:43.197Z,0.30
2022-11-24T09:13:44.866Z,0.30
2022-11-24T09:16:46.572Z,0.40
2022-11-24T09:19:48.844Z,0.52
2022-11-24T09:22:50.603Z,0.30
2022-11-24T09:25:52.536Z,0.52
2022-11-24T09:28:55.846Z,0.50
2022-11-24T09:32:00.814Z,0.60
2022-11-24T09:35:07.997Z,0.63
2022-11-24T09:38:10.975Z,0.40
2022-11-24T09:41:39.452Z,0.40
2022-11-24T09:44:55.742Z,0.30
2022-11-24T09:48:01.839Z,0.50
2022-11-24T09:51:05.298Z,0.40
2022-11-24T09:54:15.759Z,0.50
2022-11-24T09:57:19.295Z,0.50
2022-11-24T10:00:21.125Z,0.50
2022-11-24T10:03:28.976Z,0.43
2022-11-24T10:06:38.061Z,0.63
2022-11-24T10:09:56.202Z,0.60
2022-11-24T10:13:07.549Z,0.30
2022-11-24T10:16:16.613Z,0.63
2022-11-24T10:19:38.049Z,0.40
2022-11-24T10:22:51.529Z,0.35
2022-11-24T10:25:57.423Z,0.50
2022-11-24T10:28:59.278Z,0.50
2022-11-24T10:32:05.820Z,0.40
2022-11-24T10:35:15.856Z,0.55
2022-11-24T10:38:30.773Z,0.68
2022-11-24T10:41:46.465Z,0.50
2022-11-24T10:44:59.802Z,0.50
2022-11-24T10:48:01.522Z,0.40
2022-11-24T10:51:30.504Z,0.50
2022-11-24T10:54:35.283Z,0.30
2022-11-24T10:57:39.770Z,0.40
2022-11-24T11:00:41.728Z,0.47
2022-11-24T11:03:50.446Z,0.38
2022-11-24T11:06:55.511Z,0.40
2022-11-24T11:10:18.876Z,0.30
2022-11-24T11:13:24.044Z,0.75
2022-11-24T11:16:32.094Z,0.35
2022-11-24T11:19:56.993Z,0.43
2022-11-24T11:23:02.409Z,0.40
2022-11-24T11:26:19.647Z,0.30
2022-11-24T11:36:23.100Z,0.40
2022-11-24T11:39:31.394Z,0.30
2022-11-24T11:43:10.702Z,0.38
2022-11-24T11:46:06.193Z,0.30
2022-11-24T11:49:10.767Z,0.30
2022-11-24T11:52:36.317Z,0.40
2022-11-24T11:55:50.597Z,0.15
2022-11-24T11:59:27.322Z,0.50
2022-11-24T12:02:58.168Z,0.30
2022-11-24T12:06:10.026Z,0.30
2022-11-24T12:09:22.100Z,0.32
2022-11-24T12:12:47.252Z,0.40
2022-11-24T12:15:52.208Z,0.30
2022-11-24T12:19:27.716Z,0.50
2022-11-24T12:22:39.100Z,0.50
2022-11-24T12:25:45.150Z,0.30
2022-11-24T12:28:56.537Z,0.30
2022-11-24T12:32:10.713Z,0.40
2022-11-24T12:35:22.473Z,0.22
2022-11-24T12:38:37.074Z,0.30
2022-11-24T12:41:53.677Z,0.50
2022-11-24T12:45:12.593Z,0.30
2022-11-24T12:48:28.234Z,0.50
2022-11-24T12:51:34.595Z,0.47
2022-11-24T12:54:39.447Z,0.40
2022-11-24T12:57:47.861Z,0.50
2022-11-24T13:01:02.383Z,0.30
2022-11-24T13:04:12.131Z,0.68
2022-11-24T13:07:17.760Z,0.35
2022-11-24T13:13:59.261Z,0.40
2022-11-24T13:20:30.634Z,0.40
2022-11-24T13:23:32.303Z,0.40
2022-11-24T13:26:45.301Z,0.30
2022-11-24T13:29:48.418Z,0.40
2022-11-24T13:33:00.901Z,0.40
2022-11-24T13:36:30.080Z,0.38
2022-11-24T13:39:51.791Z,0.35
2022-11-24T13:43:14.711Z,0.60
2022-11-24T13:46:51.233Z,0.30
2022-11-24T13:49:53.528Z,0.40
2022-11-24T13:53:05.954Z,0.52
2022-11-24T13:56:21.474Z,0.30
2022-11-24T13:59:30.203Z,0.30
2022-11-24T14:02:33.833Z,0.45
2022-11-24T14:05:38.716Z,0.60
2022-11-24T14:08:40.554Z,0.30
2022-11-24T14:11:42.858Z,0.43
2022-11-24T14:14:46.006Z,0.40
2022-11-24T14:17:47.679Z,0.70
2022-11-24T14:20:50.455Z,0.60
2022-11-24T14:23:55.245Z,0.40
2022-11-24T14:26:58.307Z,0.50
2022-11-24T14:30:02.582Z,0.40
2022-11-24T14:33:11.796Z,0.60
2022-11-24T14:36:15.483Z,0.57
2022-11-24T14:39:18.781Z,0.68
2022-11-24T14:42:23.018Z,0.77
2022-11-24T14:45:24.658Z,0.50
2022-11-24T14:48:29.811Z,0.65
2022-11-24T14:51:35.207Z,0.57
2022-11-24T14:54:44.513Z,0.60
2022-11-24T14:57:46.168Z,0.65
2022-11-24T15:01:10.805Z,0.45
2022-11-24T15:04:26.475Z,0.50
2022-11-24T15:07:29.802Z,0.68
2022-11-24T15:10:35.817Z,0.45
2022-11-24T15:13:38.790Z,0.65
2022-11-24T15:16:41.511Z,0.60
2022-11-24T15:19:46.358Z,0.47
2022-11-24T15:22:51.524Z,0.50
2022-11-24T15:25:54.146Z,0.60
2022-11-24T15:28:55.644Z,0.45
2022-11-24T15:31:58.423Z,0.50
2022-11-24T15:35:00.096Z,0.63
2022-11-24T15:38:02.231Z,0.68
2022-11-24T15:41:15.750Z,0.40
2022-11-24T15:44:17.529Z,0.32
2022-11-24T15:47:19.086Z,0.60
2022-11-24T15:50:21.298Z,0.60
2022-11-24T15:53:25.448Z,0.50
2022-11-24T15:56:31.456Z,0.50
2022-11-24T15:59:33.180Z,0.60
2022-11-24T16:02:34.781Z,0.57
2022-11-24T16:05:37.688Z,0.32
2022-11-24T16:08:40.030Z,0.70
2022-11-24T16:11:41.902Z,0.50
2022-11-24T16:14:43.630Z,0.40
2022-11-24T16:17:45.523Z,0.45
2022-11-24T16:20:47.163Z,0.47
2022-11-24T16:23:49.447Z,0.50
2022-11-24T16:26:51.198Z,0.50
2022-11-24T16:29:52.697Z,0.60
2022-11-24T16:32:55.200Z,0.43
2022-11-24T16:35:56.951Z,0.40
2022-11-24T16:38:59.851Z,0.45
2022-11-24T16:42:01.343Z,0.50
2022-11-24T16:48:05.372Z,0.50
2022-11-24T16:51:09.206Z,0.50
2022-11-24T16:54:11.463Z,0.55
2022-11-24T16:57:14.959Z,0.38
2022-11-24T17:00:18.051Z,0.22
2022-11-24T17:03:19.564Z,0.50
2022-11-24T17:06:21.452Z,0.50
2022-11-24T17:09:23.685Z,0.47
2022-11-24T17:12:25.224Z,0.60
2022-11-24T17:15:39.151Z,0.40
2022-11-24T17:18:44.788Z,0.75
2022-11-24T17:21:46.563Z,0.47
2022-11-24T17:24:48.699Z,0.70
2022-11-24T17:27:50.857Z,0.30
2022-11-24T17:30:52.337Z,0.73
2022-11-24T17:33:55.595Z,0.47
2022-11-24T17:43:37.008Z,0.38
2022-11-24T17:46:38.899Z,0.25
2022-11-24T17:49:40.515Z,0.32
2022-11-24T17:52:42.081Z,0.30
2022-11-24T17:55:43.874Z,0.32
2022-11-24T17:58:45.998Z,0.30
2022-11-24T18:01:47.433Z,0.20
2022-11-24T18:07:50.400Z,0.22
2022-11-24T18:10:51.906Z,0.40
2022-11-24T18:13:59.709Z,0.20
2022-11-24T18:17:02.559Z,0.30
2022-11-24T18:20:04.953Z,0.32
2022-11-24T18:23:06.467Z,0.40
2022-11-24T18:26:09.928Z,0.40
2022-11-24T18:29:12.055Z,0.30
2022-11-24T18:32:13.592Z,0.40
2022-11-24T18:35:15.045Z,0.32
2022-11-24T18:41:18.199Z,0.30
2022-11-24T18:44:20.205Z,0.40
2022-11-24T18:47:21.891Z,0.40
2022-11-24T18:50:23.558Z,0.40
2022-11-24T18:53:26.598Z,0.22
2022-11-24T18:56:28.407Z,0.30
2022-11-24T18:59:30.601Z,0.40
2022-11-24T19:02:32.370Z,0.30
2022-11-24T19:05:34.498Z,0.30
2022-11-24T19:08:36.196Z,0.22
2022-11-24T19:11:40.171Z,0.30
2022-11-24T19:14:42.229Z,0.43
2022-11-24T19:17:47.161Z,0.30
2022-11-24T19:20:49.009Z,0.25
2022-11-24T19:23:50.394Z,0.30
2022-11-24T19:29:55.342Z,0.38
2022-11-24T19:32:56.920Z,0.43
2022-11-24T19:36:01.536Z,0.30
2022-11-24T19:39:04.299Z,0.38
2022-11-24T19:42:05.770Z,0.20
2022-11-24T19:48:10.071Z,0.30
2022-11-24T19:51:13.356Z,0.30
2022-11-24T19:54:16.276Z,0.40
2022-11-24T19:57:17.762Z,0.30
2022-11-24T20:03:21.274Z,0.30
2022-11-24T20:09:24.182Z,0.20
2022-11-24T20:12:25.622Z,0.47
2022-11-24T20:18:30.619Z,0.30
2022-11-24T20:21:33.692Z,0.30
2022-11-24T20:24:35.344Z,0.30
2022-11-24T20:27:36.876Z,0.40
2022-11-24T20:36:44.415Z,0.30
2022-11-24T20:39:45.929Z,0.35
2022-11-24T20:45:49.472Z,0.38
2022-11-24T20:48:51.905Z,0.40
2022-11-24T20:51:54.144Z,0.43
2022-11-24T20:54:56.564Z,0.50
2022-11-24T20:57:58.063Z,0.45
2022-11-24T21:04:07.546Z,0.40
2022-11-24T21:07:12.547Z,0.50
2022-11-24T21:10:14.033Z,0.40
2022-11-24T21:16:19.585Z,0.52
2022-11-24T21:19:21.319Z,0.43
2022-11-24T21:22:22.798Z,0.50
2022-11-24T21:28:25.601Z,0.40
2022-11-24T21:31:27.597Z,0.30
2022-11-24T21:34:29.120Z,0.55
2022-11-24T21:40:32.071Z,0.47
2022-11-24T21:46:42.166Z,0.20
2022-11-24T21:49:46.585Z,0.40
2022-11-24T21:52:48.181Z,0.50
2022-11-24T21:55:54.414Z,0.43
2022-11-24T21:58:57.802Z,0.50
2022-11-24T22:01:59.920Z,0.63
2022-11-24T22:05:01.559Z,0.57
2022-11-24T22:08:03.698Z,0.73
2022-11-24T22:11:07.941Z,0.68
2022-11-24T22:14:09.677Z,0.88
2022-11-24T22:17:13.765Z,0.90
2022-11-24T22:20:15.553Z,0.90
2022-11-24T22:23:17.042Z,0.95
2022-11-24T22:29:21.218Z,0.80
2022-11-24T22:38:26.527Z,0.85
2022-11-24T22:41:28.066Z,1.13
2022-11-24T22:47:31.444Z,0.90
2022-11-24T22:50:33.078Z,0.65
2022-11-24T22:53:34.746Z,0.63
2022-11-24T22:56:36.172Z,0.68
2022-11-24T22:59:37.539Z,0.70
2022-11-24T23:02:39.885Z,0.60
2022-11-24T23:05:41.509Z,0.80
2022-11-24T23:08:43.999Z,0.70
2022-11-24T23:11:45.405Z,0.50
2022-11-24T23:17:48.675Z,0.50
2022-11-24T23:20:50.238Z,0.50
2022-11-24T23:26:53.516Z,0.70
2022-11-24T23:29:54.934Z,0.70
2022-11-24T23:39:02.259Z,0.40
2022-11-24T23:42:03.805Z,0.50
